Airfield :
LOGIN :

Register | Disclaimer

   EN    FR    IT 

 










Legend :    VFR   Marginal VFR   IFR   Intensive IFR   Very Intensive IFR
Visi :
Ceiling :
>= 8 km
>= 3000ft
5 to 8 km
1000 to 3000 ft
1500m to 5 km
500 to 1000 ft
800 to 1500m
200 to 500 ft
< 800m
< 200 ft
Symbols :   Thunderstorms  Fog  Heavy snow  Heavy precipitations  Wind > 20 kt
SIGMETs :     Misc.  Thunderstorms  Icing  Turbulence  Mountain Waves  Volcanic Ashes






- Airport Elevation : 124 ft
- IATA code : AVN


LFMV - Avignon Caumont

CURRENT METAR :
  • 231000Z AUTO 36012KT 330V030 CAVOK 14/04 Q1022 NOSIG

EXPIRED METARs :
  • 230930Z AUTO 35011KT 330V030 CAVOK 13/03 Q1022 NOSIG
  • 230900Z AUTO 35012KT 320V020 CAVOK 13/03 Q1022 NOSIG
  • 230830Z AUTO 35011KT CAVOK 12/03 Q1022 NOSIG
  • 230800Z AUTO 36014KT CAVOK 11/03 Q1022 TEMPO 35020G30KT
  • 230730Z AUTO 35016G27KT CAVOK 10/03 Q1022 NOSIG

TAF TAF LFMV
Valid from the 23 at 09:00 until the 24 at 09:00 UTC


230800Z 2309/2409 35012KT CAVOK
BECMG 2320/2322 VRB03KT
ATIS : +33 4 90 84 32 84



MET'MAP, your aeronautical weather chart ! - Copyright ORBIFLY December 2007 - Disclaimer

ORBIFLY MET'MAP TEAM :

Programming & Development : Alexandra Zaïnal
Concept & original design : Baudouin d'Aumeries
Assistance for programming : Marc-Olivier Méhu
Technical & hardware support : Manuel Goepfert

Contact : metmap@orbifly.com




SOURCES & CREDITS :

   NOAA